Time;durP1;ratioP1;P1;durP2;ratioP2;P2;SDS_P1;SDS_P2;PMS_P1;PMS_P2;Temp;Humidity;BMP_temperature;BMP_pressure;BME280_temperature;BME280_humidity;BME280_pressure;Samples;Min_cycle;Max_cycle;Signal;HPM_P1;HPM_P2
2023/07/14 00:01:52;;;;;;;12.60;6.00;;;;;;;25.39;44.06;93848.19;5052995;28;20086;-73
2023/07/14 00:04:31;;;;;;;15.00;7.00;;;;;;;25.46;43.67;93864.47;5051629;28;20032;-72
2023/07/14 00:06:57;;;;;;;12.52;6.07;;;;;;;25.43;44.03;93859.81;5050012;28;20040;-73
2023/07/14 00:09:28;;;;;;;10.50;5.93;;;;;;;25.43;43.53;93859.03;5053105;28;20401;-73
2023/07/14 00:11:54;;;;;;;14.30;6.95;;;;;;;25.40;43.87;93857.91;5051730;28;20463;-73
2023/07/14 00:14:20;;;;;;;9.07;6.55;;;;;;;25.28;44.22;93847.50;5051412;28;20567;-73
2023/07/14 00:16:45;;;;;;;8.43;6.03;;;;;;;25.34;43.93;93845.94;5052159;28;20035;-72
2023/07/14 00:19:17;;;;;;;10.27;5.70;;;;;;;25.42;43.91;93858.28;5050148;28;20540;-73
2023/07/14 00:21:44;;;;;;;7.05;6.00;;;;;;;25.37;44.47;93845.09;5046187;28;20033;-73
2023/07/14 00:24:12;;;;;;;12.70;6.32;;;;;;;25.43;44.20;93843.47;5050597;28;20147;-73
2023/07/14 00:26:40;;;;;;;9.45;6.13;;;;;;;25.35;44.00;93828.41;5052354;28;20526;-73
2023/07/14 00:29:30;;;;;;;9.35;6.13;;;;;;;25.24;44.76;93833.94;5052386;28;20024;-72
2023/07/14 00:31:57;;;;;;;8.07;5.70;;;;;;;25.20;44.97;93830.50;5054828;28;20115;-72
2023/07/14 00:34:23;;;;;;;10.38;6.15;;;;;;;25.27;44.40;93824.22;5051901;28;20765;-71
2023/07/14 00:36:48;;;;;;;10.80;6.32;;;;;;;25.21;44.47;93825.84;5052235;28;20146;-72
2023/07/14 00:39:14;;;;;;;8.75;6.22;;;;;;;25.18;44.50;93826.63;5051003;28;20029;-71
2023/07/14 00:41:39;;;;;;;9.70;6.97;;;;;;;25.15;44.83;93832.88;5045110;28;20044;-71
2023/07/14 00:44:05;;;;;;;8.45;5.88;;;;;;;25.16;44.85;93839.88;5050213;28;20143;-72
2023/07/14 00:46:32;;;;;;;9.98;6.55;;;;;;;25.19;44.73;93855.38;5047862;28;20028;-72
2023/07/14 00:49:01;;;;;;;10.55;6.30;;;;;;;25.11;44.70;93870.25;5045074;28;20521;-71
2023/07/14 00:51:30;;;;;;;12.40;6.60;;;;;;;25.12;44.73;93893.56;5051361;28;20560;-74
2023/07/14 00:53:56;;;;;;;10.65;6.50;;;;;;;25.18;45.03;93902.81;5051843;28;20044;-72
2023/07/14 00:56:43;;;;;;;12.13;6.50;;;;;;;25.16;45.13;93910.63;5049238;28;20515;-74
2023/07/14 00:59:14;;;;;;;8.70;6.22;;;;;;;25.17;45.66;93912.19;5049077;28;20849;-73
2023/07/14 01:02:19;;;;;;;11.48;7.38;;;;;;;25.10;45.64;93914.97;5052391;28;20139;-73
2023/07/14 01:04:59;;;;;;;15.57;7.97;;;;;;;25.08;45.57;93903.69;5050885;28;20037;-74
2023/07/14 01:07:48;;;;;;;12.32;7.50;;;;;;;25.13;45.51;93919.59;5050441;28;20133;-74
2023/07/14 01:10:17;;;;;;;10.88;7.03;;;;;;;25.14;45.56;93915.69;5049793;28;20037;-73
2023/07/14 01:12:47;;;;;;;14.38;6.88;;;;;;;25.13;45.86;93911.44;5049881;28;20136;-73
2023/07/14 01:15:12;;;;;;;14.98;8.02;;;;;;;25.05;46.32;93909.94;5050731;28;20051;-74
2023/07/14 01:17:39;;;;;;;10.27;7.00;;;;;;;24.93;46.36;93899.59;5049198;28;20029;-73
2023/07/14 01:20:10;;;;;;;10.43;7.63;;;;;;;24.97;46.09;93892.16;5052573;28;20101;-73
2023/07/14 01:22:43;;;;;;;16.55;8.32;;;;;;;25.04;46.45;93913.84;5051519;28;20447;-73
2023/07/14 01:25:35;;;;;;;10.18;7.55;;;;;;;25.02;46.53;93910.78;5051382;28;20654;-74
2023/07/14 01:28:07;;;;;;;11.63;8.55;;;;;;;24.89;46.42;93901.53;5049742;28;20090;-73
2023/07/14 01:30:34;;;;;;;11.38;8.43;;;;;;;24.84;46.46;93884.47;5050959;28;20044;-73
2023/07/14 01:32:59;;;;;;;11.25;7.97;;;;;;;24.96;45.84;93896.06;5048220;28;20563;-74
2023/07/14 01:35:31;;;;;;;12.70;8.65;;;;;;;24.90;46.37;93886.78;5051856;28;20058;-73
2023/07/14 01:37:57;;;;;;;11.80;7.57;;;;;;;24.85;46.40;93882.53;5047068;28;20423;-73
2023/07/14 01:40:23;;;;;;;11.48;7.45;;;;;;;24.85;46.84;93882.53;5050373;28;20098;-73
2023/07/14 01:42:54;;;;;;;11.43;7.80;;;;;;;24.84;46.50;93889.16;5049365;28;20041;-73
2023/07/14 01:45:22;;;;;;;10.60;8.02;;;;;;;24.80;46.81;93881.03;5050041;28;20453;-74
2023/07/14 01:47:53;;;;;;;12.18;8.00;;;;;;;24.87;46.55;93879.41;5051059;28;20094;-73
2023/07/14 01:50:26;;;;;;;14.95;7.55;;;;;;;24.82;46.61;93854.22;5047106;28;20044;-72
2023/07/14 01:52:56;;;;;;;11.40;7.47;;;;;;;24.84;46.73;93861.94;5049752;28;20047;-73
2023/07/14 01:55:25;;;;;;;14.75;9.05;;;;;;;24.72;46.27;93840.69;5051047;28;20032;-72
2023/07/14 01:57:55;;;;;;;12.55;8.52;;;;;;;24.76;46.34;93863.97;5053962;28;20444;-72
2023/07/14 02:00:21;;;;;;;14.90;7.85;;;;;;;24.81;46.18;93873.63;5049513;28;20374;-72
2023/07/14 02:02:49;;;;;;;15.30;7.93;;;;;;;24.77;46.08;93873.69;5055157;28;20496;-72
2023/07/14 02:05:21;;;;;;;9.10;6.85;;;;;;;24.82;46.00;93878.69;5055352;28;20311;-71
2023/07/14 02:07:47;;;;;;;11.65;7.90;;;;;;;24.81;46.38;93896.19;5052018;28;20066;-72
2023/07/14 02:10:18;;;;;;;10.05;8.13;;;;;;;24.74;46.78;93912.53;5051584;28;20534;-72
2023/07/14 02:12:46;;;;;;;11.88;8.40;;;;;;;24.64;46.48;93913.38;5055064;28;20124;-72
2023/07/14 02:15:20;;;;;;;10.02;7.35;;;;;;;24.72;46.72;93942.09;5051685;28;20106;-72
2023/07/14 02:17:47;;;;;;;11.35;7.88;;;;;;;24.77;46.47;93949.84;5052449;28;20106;-72
2023/07/14 02:20:41;;;;;;;15.82;8.20;;;;;;;24.77;46.94;93960.72;5053929;28;20029;-72
2023/07/14 02:23:12;;;;;;;11.73;8.02;;;;;;;24.68;46.88;93956.88;5052403;28;20499;-72
2023/07/14 02:25:42;;;;;;;14.38;7.95;;;;;;;24.65;47.16;93974.72;5053227;28;20158;-71
2023/07/14 02:28:09;;;;;;;13.15;8.27;;;;;;;24.61;47.26;93982.16;5053585;28;20037;-71
2023/07/14 02:30:36;;;;;;;11.98;8.38;;;;;;;24.54;47.21;93979.47;5053340;28;20581;-72
2023/07/14 02:33:14;;;;;;;10.43;8.05;;;;;;;24.49;47.72;93976.41;5054348;28;20059;-72
2023/07/14 02:35:50;;;;;;;18.20;7.80;;;;;;;24.45;47.62;93981.84;5054083;28;20037;-72
2023/07/14 02:38:17;;;;;;;12.57;8.13;;;;;;;24.48;48.08;93997.38;5054347;28;20937;-72
2023/07/14 02:41:11;;;;;;;9.27;7.43;;;;;;;24.47;47.74;94001.25;5055270;28;20020;-72
2023/07/14 02:43:37;;;;;;;10.27;7.53;;;;;;;24.29;47.52;93962.53;5042865;28;20072;-72
2023/07/14 02:46:14;;;;;;;13.00;7.85;;;;;;;24.12;47.92;93980.47;5054788;28;20387;-72
2023/07/14 02:48:43;;;;;;;13.80;8.55;;;;;;;24.11;47.83;93969.94;5052653;28;20049;-72
2023/07/14 02:51:09;;;;;;;16.73;8.10;;;;;;;24.23;47.48;93985.84;5050335;28;20620;-72
2023/07/14 02:53:35;;;;;;;13.88;8.32;;;;;;;24.38;46.89;94003.66;5051643;28;20036;-72
2023/07/14 02:56:01;;;;;;;11.82;7.97;;;;;;;24.41;46.20;94000.13;5052998;28;20016;-71
2023/07/14 02:58:26;;;;;;;13.57;6.78;;;;;;;24.34;44.98;93970.28;5056011;28;20169;-71
2023/07/14 03:00:53;;;;;;;9.38;6.63;;;;;;;24.56;44.03;93985.28;5052412;28;20147;-71
2023/07/14 03:03:18;;;;;;;10.63;6.68;;;;;;;24.58;42.66;93980.22;5051641;28;20058;-72
2023/07/14 03:05:44;;;;;;;13.10;7.03;;;;;;;24.71;42.29;93992.22;5054287;28;20530;-71
2023/07/14 03:08:16;;;;;;;7.25;5.88;;;;;;;24.70;40.23;93984.41;5051775;28;20087;-71
2023/07/14 03:10:48;;;;;;;10.55;6.18;;;;;;;24.76;40.02;93997.22;5052705;28;20050;-72
2023/07/14 03:13:16;;;;;;;13.10;6.47;;;;;;;24.79;39.72;93995.66;5051137;28;20531;-72
2023/07/14 03:15:44;;;;;;;10.82;6.32;;;;;;;24.78;39.26;93989.44;5051936;28;20039;-72
2023/07/14 03:18:10;;;;;;;15.07;7.32;;;;;;;24.89;38.45;93986.63;5052754;28;20076;-71
2023/07/14 03:20:37;;;;;;;8.20;6.20;;;;;;;25.02;38.42;93986.94;5052179;28;20764;-71
2023/07/14 03:23:03;;;;;;;11.52;7.43;;;;;;;25.06;40.26;93982.25;5053668;28;20028;-72
2023/07/14 03:25:28;;;;;;;9.32;6.60;;;;;;;24.94;39.12;93963.69;5053766;28;20024;-72
2023/07/14 03:27:54;;;;;;;12.57;7.35;;;;;;;25.19;38.45;93994.19;5053949;28;20060;-72
2023/07/14 03:30:19;;;;;;;10.25;6.75;;;;;;;25.37;38.04;94013.88;5046016;28;20326;-72
2023/07/14 03:32:44;;;;;;;9.52;7.38;;;;;;;25.45;39.38;94017.34;5053171;28;20040;-72
2023/07/14 03:35:10;;;;;;;8.85;7.07;;;;;;;25.43;38.67;94019.66;5050974;28;20055;-72
2023/07/14 03:37:35;;;;;;;10.50;6.07;;;;;;;25.34;37.74;94027.53;5052810;28;20019;-72
2023/07/14 03:40:01;;;;;;;12.70;7.05;;;;;;;25.23;36.68;94030.31;5050849;28;20091;-72
2023/07/14 03:42:27;;;;;;;10.98;7.38;;;;;;;25.12;35.95;94029.63;5053970;28;20032;-72
2023/07/14 03:44:52;;;;;;;13.88;6.35;;;;;;;25.02;35.28;94019.59;5049623;28;20041;-72
2023/07/14 03:47:17;;;;;;;9.38;7.03;;;;;;;25.02;34.31;94025.81;5052269;28;20166;-72
2023/07/14 03:49:43;;;;;;;9.50;6.60;;;;;;;25.14;34.67;94032.72;5053393;28;20040;-72
2023/07/14 03:52:08;;;;;;;15.30;6.82;;;;;;;25.16;34.59;94035.81;5052736;28;20045;-72
2023/07/14 03:54:34;;;;;;;11.30;7.60;;;;;;;25.22;34.72;94028.78;5050118;28;20079;-72
2023/07/14 03:56:59;;;;;;;11.13;7.45;;;;;;;25.21;34.60;94030.72;5052979;28;20040;-72
2023/07/14 03:59:27;;;;;;;12.82;7.72;;;;;;;25.20;33.41;94025.69;5051479;28;20151;-72
2023/07/14 04:01:54;;;;;;;12.77;7.22;;;;;;;25.30;33.46;94030.25;5051832;28;20024;-72
2023/07/14 04:04:20;;;;;;;12.13;7.50;;;;;;;25.25;32.73;94033.41;5052817;28;20037;-72
2023/07/14 04:06:46;;;;;;;13.63;8.07;;;;;;;25.32;33.33;94038.06;5051854;28;20539;-72
2023/07/14 04:09:12;;;;;;;14.30;8.35;;;;;;;25.40;33.75;94051.22;5051101;28;20053;-71
2023/07/14 04:11:37;;;;;;;10.57;7.10;;;;;;;25.36;33.67;94045.03;5049780;28;20043;-72
2023/07/14 04:14:05;;;;;;;13.00;7.78;;;;;;;25.49;33.99;94067.84;5051706;28;20392;-72
2023/07/14 04:16:30;;;;;;;13.50;7.93;;;;;;;25.36;36.56;94053.19;5050760;28;20017;-73
2023/07/14 04:18:56;;;;;;;13.73;8.63;;;;;;;25.43;39.79;94065.97;5050403;28;20476;-72
2023/07/14 04:21:24;;;;;;;13.95;8.27;;;;;;;25.47;41.04;94077.63;5045594;28;20112;-73
2023/07/14 04:23:55;;;;;;;16.02;9.32;;;;;;;25.49;41.23;94092.38;5050253;28;20041;-72
2023/07/14 04:26:22;;;;;;;12.32;9.43;;;;;;;25.46;42.55;94109.50;5053033;28;20089;-73
2023/07/14 04:28:48;;;;;;;16.63;9.35;;;;;;;25.40;42.99;94111.13;5066357;28;20777;-72
2023/07/14 04:31:13;;;;;;;15.80;9.55;;;;;;;25.45;42.26;94099.78;5052273;28;20590;-72
2023/07/14 04:33:42;;;;;;;17.35;9.43;;;;;;;25.53;42.88;94111.38;5050918;28;20048;-72
2023/07/14 04:36:08;;;;;;;17.15;9.23;;;;;;;25.62;42.97;94128.81;5052289;28;20075;-72
2023/07/14 04:38:33;;;;;;;18.13;8.95;;;;;;;25.64;41.38;94129.22;5050052;28;20172;-73
2023/07/14 04:40:58;;;;;;;12.88;7.75;;;;;;;25.65;41.05;94128.03;5053663;28;20716;-71
2023/07/14 04:43:24;;;;;;;13.10;8.23;;;;;;;25.55;39.71;94133.56;5050512;28;20527;-72
2023/07/14 04:45:51;;;;;;;17.73;7.97;;;;;;;25.55;39.99;94156.13;5052660;28;20590;-73
2023/07/14 04:48:18;;;;;;;15.35;8.73;;;;;;;25.54;40.50;94151.84;5050188;28;20064;-71
2023/07/14 04:50:46;;;;;;;14.70;8.70;;;;;;;25.42;41.67;94162.44;5052506;28;20041;-72
2023/07/14 04:53:13;;;;;;;21.33;8.80;;;;;;;25.41;42.43;94167.13;5048910;28;20031;-71
2023/07/14 04:55:42;;;;;;;12.60;8.20;;;;;;;25.44;43.14;94155.41;5052472;28;20029;-72
2023/07/14 04:58:15;;;;;;;15.05;8.60;;;;;;;25.33;42.73;94160.16;5051293;28;20059;-71
2023/07/14 05:00:43;;;;;;;13.07;8.38;;;;;;;25.24;42.56;94170.69;5050741;28;20507;-71
2023/07/14 05:03:09;;;;;;;12.43;8.20;;;;;;;25.24;43.59;94176.13;5053092;28;20032;-72
2023/07/14 05:05:35;;;;;;;13.52;7.70;;;;;;;25.32;43.18;94163.28;5048975;28;20037;-71
2023/07/14 05:08:01;;;;;;;18.45;7.90;;;;;;;25.43;41.93;94180.31;5053772;28;20064;-71
2023/07/14 05:10:27;;;;;;;18.55;8.75;;;;;;;25.49;41.72;94162.38;5049200;28;20044;-71
2023/07/14 05:12:55;;;;;;;12.70;7.47;;;;;;;25.64;42.40;94172.78;5050741;28;20041;-71
2023/07/14 05:15:22;;;;;;;13.73;8.50;;;;;;;25.77;41.75;94166.84;5051148;28;20510;-71
2023/07/14 05:17:48;;;;;;;20.20;9.88;;;;;;;25.84;42.21;94169.53;5051810;28;20528;-72
2023/07/14 05:20:16;;;;;;;14.07;8.23;;;;;;;25.85;42.26;94168.34;5052401;28;20099;-71
2023/07/14 05:22:43;;;;;;;13.32;8.13;;;;;;;25.78;41.81;94157.50;5049572;28;20476;-72
2023/07/14 05:25:10;;;;;;;15.95;8.15;;;;;;;25.97;41.66;94181.50;5051203;28;20548;-73
2023/07/14 05:27:36;;;;;;;12.60;8.40;;;;;;;25.96;42.20;94174.50;5049825;28;20032;-71
2023/07/14 05:30:02;;;;;;;12.95;8.07;;;;;;;25.91;42.22;94172.22;5049965;28;20523;-72
2023/07/14 05:32:28;;;;;;;15.40;8.32;;;;;;;25.86;42.19;94169.91;5053867;28;20118;-71
2023/07/14 05:34:53;;;;;;;14.38;8.57;;;;;;;25.91;42.35;94172.97;5055411;28;20459;-71
2023/07/14 05:37:19;;;;;;;14.52;8.55;;;;;;;25.81;42.46;94189.41;5053399;28;20047;-71
2023/07/14 05:39:45;;;;;;;16.27;8.15;;;;;;;25.87;42.47;94177.66;5054226;28;20035;-73
2023/07/14 05:42:11;;;;;;;13.55;8.40;;;;;;;25.94;43.48;94177.63;5052440;28;20033;-72
2023/07/14 05:44:37;;;;;;;11.95;7.90;;;;;;;25.94;42.84;94172.19;5053601;28;20504;-73
2023/07/14 05:47:03;;;;;;;10.73;8.27;;;;;;;26.12;42.82;94182.94;5052204;28;20115;-70
2023/07/14 05:49:28;;;;;;;12.88;8.45;;;;;;;26.23;43.20;94175.44;5055036;28;20101;-72
2023/07/14 05:51:54;;;;;;;13.73;7.95;;;;;;;26.25;43.47;94196.84;5053578;28;20425;-71
2023/07/14 05:54:23;;;;;;;14.05;8.43;;;;;;;26.31;43.21;94190.53;5053564;28;20033;-71
2023/07/14 05:56:50;;;;;;;12.98;8.18;;;;;;;26.41;43.56;94192.38;5054725;28;20051;-73
2023/07/14 05:59:16;;;;;;;12.45;8.30;;;;;;;26.25;43.24;94153.22;5052768;28;20471;-71
2023/07/14 06:01:41;;;;;;;15.93;7.85;;;;;;;26.42;43.15;94182.25;5052941;28;20024;-72
2023/07/14 06:04:06;;;;;;;14.13;7.97;;;;;;;26.18;42.06;94154.06;5054591;28;20155;-71
2023/07/14 06:06:32;;;;;;;17.55;7.72;;;;;;;26.42;42.44;94172.13;5053071;28;20045;-71
2023/07/14 06:08:59;;;;;;;11.13;6.85;;;;;;;26.53;43.09;94181.00;5055902;28;20118;-71
2023/07/14 06:11:25;;;;;;;13.75;8.20;;;;;;;26.53;43.31;94164.63;5053840;28;20505;-72
2023/07/14 06:13:50;;;;;;;16.30;9.00;;;;;;;26.65;41.65;94171.50;5053381;28;20615;-72
2023/07/14 06:16:15;;;;;;;13.82;8.70;;;;;;;26.56;42.56;94160.31;5055161;28;20036;-72
2023/07/14 06:18:41;;;;;;;16.50;9.10;;;;;;;26.60;43.10;94169.22;5053804;28;20396;-71
2023/07/14 06:21:08;;;;;;;15.18;8.63;;;;;;;26.54;43.23;94160.72;5051296;28;20512;-72
2023/07/14 06:23:33;;;;;;;10.75;8.38;;;;;;;26.67;42.90;94176.56;5054418;28;20397;-71
2023/07/14 06:25:59;;;;;;;12.23;8.02;;;;;;;26.75;43.24;94172.56;5053200;28;20093;-71
2023/07/14 06:28:25;;;;;;;20.05;8.90;;;;;;;26.79;43.01;94165.13;5053411;28;20484;-73
2023/07/14 06:31:00;;;;;;;11.63;8.55;;;;;;;26.76;43.14;94155.03;5051160;28;20568;-72
2023/07/14 06:33:26;;;;;;;15.57;8.27;;;;;;;26.98;42.98;94167.25;5054247;28;20036;-71
2023/07/14 06:35:55;;;;;;;12.35;8.60;;;;;;;26.96;43.35;94172.31;5051661;28;20401;-71
2023/07/14 06:38:22;;;;;;;14.68;8.52;;;;;;;26.97;43.44;94176.59;5054244;28;20036;-71
2023/07/14 06:40:54;;;;;;;15.93;9.25;;;;;;;26.99;42.58;94166.03;5053666;28;20029;-72
2023/07/14 06:43:19;;;;;;;15.52;7.90;;;;;;;27.12;43.46;94172.53;5051401;28;20175;-71
2023/07/14 06:45:47;;;;;;;12.07;8.18;;;;;;;27.16;44.39;94162.34;5054267;28;20575;-71
2023/07/14 06:48:12;;;;;;;11.63;9.18;;;;;;;27.24;43.62;94163.78;5051443;28;20580;-72
2023/07/14 06:50:38;;;;;;;14.05;8.63;;;;;;;27.31;43.29;94169.16;5053247;28;20055;-71
2023/07/14 06:53:03;;;;;;;17.85;9.00;;;;;;;27.30;43.60;94167.59;5052012;28;20440;-71
2023/07/14 06:55:28;;;;;;;15.23;8.88;;;;;;;27.31;43.55;94173.84;5051725;28;20032;-73
2023/07/14 06:57:54;;;;;;;17.10;9.48;;;;;;;27.32;43.39;94173.44;5052729;28;20063;-71
2023/07/14 07:00:20;;;;;;;12.73;8.45;;;;;;;27.52;43.43;94178.25;5052362;28;20459;-71
2023/07/14 07:02:46;;;;;;;13.95;8.90;;;;;;;27.57;43.29;94175.06;5054503;28;20029;-71
2023/07/14 07:05:11;;;;;;;11.55;8.75;;;;;;;27.42;42.78;94177.22;5044531;28;20089;-71
2023/07/14 07:07:37;;;;;;;11.52;8.18;;;;;;;27.47;42.87;94174.00;5053717;28;20021;-72
2023/07/14 07:10:03;;;;;;;12.90;8.35;;;;;;;27.48;43.04;94172.03;5051866;28;20497;-71
2023/07/14 07:12:29;;;;;;;14.40;7.63;;;;;;;27.70;42.29;94189.69;5053724;28;20040;-73
2023/07/14 07:14:54;;;;;;;12.57;8.25;;;;;;;27.67;43.13;94174.13;5052448;28;20409;-71
2023/07/14 07:17:20;;;;;;;15.52;8.93;;;;;;;27.59;42.76;94183.63;5053721;28;20063;-71
2023/07/14 07:19:45;;;;;;;14.27;8.27;;;;;;;27.69;42.95;94183.47;5051079;28;20031;-71
2023/07/14 07:22:11;;;;;;;13.70;8.18;;;;;;;27.64;42.56;94172.22;5053457;28;20189;-72
2023/07/14 07:24:36;;;;;;;15.80;8.43;;;;;;;27.65;43.06;94176.50;5051626;28;20040;-71
2023/07/14 07:27:02;;;;;;;12.15;8.75;;;;;;;27.52;42.54;94143.47;5052747;28;20037;-71
2023/07/14 07:29:30;;;;;;;11.68;8.05;;;;;;;27.70;42.29;94174.09;5052546;28;20488;-72
2023/07/14 07:31:56;;;;;;;15.00;9.07;;;;;;;27.72;42.19;94168.19;5052036;28;20033;-71
2023/07/14 07:34:21;;;;;;;13.68;8.57;;;;;;;27.67;42.34;94168.66;5052127;28;20137;-71
2023/07/14 07:36:47;;;;;;;13.15;8.05;;;;;;;27.66;42.99;94167.13;5051128;28;20532;-72
2023/07/14 07:39:12;;;;;;;16.63;8.40;;;;;;;27.63;41.79;94173.41;5052409;28;20036;-71
2023/07/14 07:41:39;;;;;;;13.25;9.30;;;;;;;27.56;42.99;94157.91;5050490;28;20051;-71
2023/07/14 07:44:08;;;;;;;12.15;8.50;;;;;;;27.60;42.38;94168.78;5053964;28;20049;-71
2023/07/14 07:46:34;;;;;;;12.90;8.55;;;;;;;27.55;43.35;94169.97;5049988;28;20021;-72
2023/07/14 07:48:59;;;;;;;11.90;8.02;;;;;;;27.53;43.82;94157.91;5053290;28;20472;-72
2023/07/14 07:51:25;;;;;;;20.88;8.95;;;;;;;27.54;43.30;94151.25;5050685;28;20049;-71
2023/07/14 07:53:50;;;;;;;13.50;8.20;;;;;;;27.62;42.70;94158.22;5052101;28;20127;-72
2023/07/14 07:56:16;;;;;;;13.20;8.73;;;;;;;27.48;43.08;94129.09;5051438;28;20028;-71
2023/07/14 07:58:42;;;;;;;15.20;8.75;;;;;;;27.48;42.91;94144.72;5051617;28;20044;-71
2023/07/14 08:01:09;;;;;;;18.15;8.40;;;;;;;27.49;43.47;94157.19;5052071;28;20127;-72
2023/07/14 08:03:35;;;;;;;15.05;8.80;;;;;;;27.48;42.40;94142.75;5052241;28;20093;-72
2023/07/14 08:06:05;;;;;;;10.55;7.45;;;;;;;27.46;43.29;94147.09;5052425;28;20040;-72
2023/07/14 08:08:31;;;;;;;14.23;8.10;;;;;;;27.46;43.10;94147.09;5051726;28;20673;-72
2023/07/14 08:10:57;;;;;;;14.90;8.52;;;;;;;27.40;43.02;94147.56;5052903;28;20032;-72
2023/07/14 08:13:25;;;;;;;17.13;8.10;;;;;;;27.44;43.45;94144.78;5051172;28;20039;-71
2023/07/14 08:15:54;;;;;;;11.57;8.02;;;;;;;27.36;43.05;94144.13;5051405;28;20044;-71
2023/07/14 08:18:20;;;;;;;12.38;7.78;;;;;;;27.35;42.77;94141.78;5051445;28;20397;-71
2023/07/14 08:20:47;;;;;;;11.73;8.07;;;;;;;27.37;42.02;94139.44;5047000;28;20036;-74
2023/07/14 08:23:15;;;;;;;15.82;8.35;;;;;;;27.39;42.53;94148.75;5051207;28;20066;-74
2023/07/14 08:25:41;;;;;;;20.63;9.10;;;;;;;27.51;42.07;94132.97;5052079;28;20017;-72
2023/07/14 08:28:06;;;;;;;12.68;8.00;;;;;;;27.52;41.34;94118.16;5054005;28;20093;-74
2023/07/14 08:30:32;;;;;;;17.33;8.00;;;;;;;27.49;41.38;94118.94;5049303;28;20521;-73
2023/07/14 08:32:58;;;;;;;11.32;9.15;;;;;;;27.53;41.05;94136.84;5050053;28;20060;-73
2023/07/14 08:35:24;;;;;;;12.77;7.93;;;;;;;27.44;42.34;94131.13;5050002;28;20469;-71
2023/07/14 08:37:50;;;;;;;15.73;7.78;;;;;;;27.38;42.17;94136.28;5052053;28;20144;-71
2023/07/14 08:40:21;;;;;;;12.90;7.85;;;;;;;27.46;42.44;94128.75;5050731;28;20086;-71
2023/07/14 08:43:21;;;;;;;17.42;8.18;;;;;;;27.40;41.94;94128.44;5050643;28;20063;-73
2023/07/14 08:46:06;;;;;;;12.60;7.70;;;;;;;27.40;42.14;94127.66;5063041;28;20152;-73
2023/07/14 08:48:37;;;;;;;13.18;8.43;;;;;;;27.45;42.02;94124.47;5048612;28;20086;-73
2023/07/14 08:51:13;;;;;;;17.17;9.77;;;;;;;27.48;42.25;94111.94;5051786;28;20463;-73
2023/07/14 08:53:40;;;;;;;16.90;9.18;;;;;;;27.39;42.38;94104.28;5051266;28;20112;-73
2023/07/14 08:56:05;;;;;;;13.43;8.55;;;;;;;27.50;41.35;94115.03;5049588;28;20025;-73
2023/07/14 08:58:38;;;;;;;13.85;9.00;;;;;;;27.52;41.82;94118.16;5051089;28;20417;-73
2023/07/14 09:01:37;;;;;;;11.95;8.48;;;;;;;27.61;42.31;94119.19;5051716;28;20139;-72
2023/07/14 09:04:17;;;;;;;16.38;9.48;;;;;;;27.54;40.42;94102.88;5047552;28;20405;-73
2023/07/14 09:06:42;;;;;;;15.38;9.63;;;;;;;27.63;41.48;94124.22;5049578;28;20025;-72
2023/07/14 09:09:18;;;;;;;14.93;9.82;;;;;;;27.67;42.66;94108.53;5052917;28;20067;-72
2023/07/14 09:11:58;;;;;;;12.30;8.32;;;;;;;27.73;41.75;94117.81;5049801;28;20036;-73
2023/07/14 09:14:50;;;;;;;12.82;8.70;;;;;;;27.63;42.38;94114.06;5051428;28;20040;-73
2023/07/14 09:17:44;;;;;;;17.25;9.18;;;;;;;27.73;43.35;94110.41;5051989;28;20025;-73
2023/07/14 09:20:10;;;;;;;14.10;8.13;;;;;;;27.67;42.54;94108.53;5048018;28;21136;-72
2023/07/14 09:22:50;;;;;;;16.52;8.60;;;;;;;27.75;42.44;94097.09;5048880;28;20104;-73
2023/07/14 09:25:44;;;;;;;16.80;9.52;;;;;;;27.71;42.57;94090.16;5051196;28;20380;-73
2023/07/14 09:28:17;;;;;;;14.87;9.63;;;;;;;27.70;42.27;94080.41;5050623;28;20044;-73
2023/07/14 09:30:45;;;;;;;13.85;9.13;;;;;;;27.74;41.66;94081.88;5050210;28;20269;-73
2023/07/14 09:33:14;;;;;;;19.25;9.50;;;;;;;27.71;42.25;94092.88;5051445;28;20033;-73
2023/07/14 09:35:41;;;;;;;18.30;9.48;;;;;;;27.73;41.83;94090.50;5051268;28;20044;-73
2023/07/14 09:38:15;;;;;;;13.60;7.90;;;;;;;27.85;40.58;94084.44;5050172;28;20028;-73
2023/07/14 09:40:43;;;;;;;13.63;9.63;;;;;;;27.88;41.15;94080.09;5052694;28;20036;-73
2023/07/14 09:43:10;;;;;;;15.13;9.32;;;;;;;27.91;40.76;94080.03;5049666;28;20040;-74
2023/07/14 09:45:38;;;;;;;16.25;8.55;;;;;;;28.01;41.49;94084.53;5051634;28;20040;-73
2023/07/14 09:48:17;;;;;;;13.88;8.50;;;;;;;27.98;40.39;94082.63;5050685;28;20120;-73
2023/07/14 09:51:02;;;;;;;14.65;9.48;;;;;;;27.94;40.28;94087.41;5051779;28;20044;-72
2023/07/14 09:53:29;;;;;;;21.65;10.25;;;;;;;27.95;41.23;94079.97;5050077;28;20044;-73
2023/07/14 09:55:58;;;;;;;11.98;9.35;;;;;;;27.95;40.56;94074.50;5051428;28;20067;-73
2023/07/14 09:58:28;;;;;;;15.23;9.88;;;;;;;27.91;39.98;94074.59;5052552;28;20024;-74
2023/07/14 10:00:57;;;;;;;16.25;9.43;;;;;;;28.09;40.80;94064.09;5046977;28;20075;-73
2023/07/14 10:03:29;;;;;;;17.75;9.98;;;;;;;27.98;40.87;94063.50;5044574;28;20450;-71
2023/07/14 10:06:10;;;;;;;12.75;8.85;;;;;;;28.09;41.15;94064.09;5050709;28;20103;-73
2023/07/14 10:08:57;;;;;;;14.30;8.98;;;;;;;28.12;41.05;94057.03;5051043;28;20052;-73
2023/07/14 10:11:38;;;;;;;14.55;9.57;;;;;;;28.19;41.51;94054.94;5048889;28;20049;-72
2023/07/14 10:14:21;;;;;;;13.35;9.30;;;;;;;28.32;41.02;94046.09;5052010;28;20027;-73
2023/07/14 10:16:47;;;;;;;16.40;10.25;;;;;;;28.32;40.10;94046.09;5052624;28;20032;-72
2023/07/14 10:19:16;;;;;;;16.45;9.13;;;;;;;28.38;40.75;94044.41;5052547;28;20116;-73
2023/07/14 10:22:04;;;;;;;16.00;9.30;;;;;;;28.32;39.86;94032.44;5051799;28;20135;-73
2023/07/14 10:24:31;;;;;;;17.75;9.73;;;;;;;28.42;40.58;94039.66;5051431;28;20033;-73
2023/07/14 10:27:01;;;;;;;12.57;9.73;;;;;;;28.55;39.18;94035.06;5054678;28;20029;-73
2023/07/14 10:29:44;;;;;;;11.55;9.10;;;;;;;28.67;40.13;94034.47;5054336;28;20135;-72
2023/07/14 10:32:20;;;;;;;20.33;9.63;;;;;;;28.55;39.06;94035.84;5053943;28;20035;-73
2023/07/14 10:35:09;;;;;;;21.05;9.88;;;;;;;28.61;38.33;94030.66;5055209;28;20052;-73
2023/07/14 10:37:46;;;;;;;13.40;9.20;;;;;;;28.65;41.23;94012.22;5043658;28;20052;-73
2023/07/14 10:40:17;;;;;;;15.82;9.68;;;;;;;28.76;38.68;94026.44;5052569;28;20040;-73
2023/07/14 10:42:57;;;;;;;15.65;8.65;;;;;;;28.71;39.10;94005.06;5054747;28;20047;-72
2023/07/14 10:45:23;;;;;;;13.30;9.40;;;;;;;28.75;40.02;93992.06;5053278;28;20503;-72
2023/07/14 10:47:54;;;;;;;12.52;9.48;;;;;;;28.80;38.10;94007.19;5053953;28;20036;-73
2023/07/14 10:50:31;;;;;;;17.98;9.70;;;;;;;28.95;39.13;94022.88;5053775;28;20056;-73
2023/07/14 10:53:23;;;;;;;17.00;10.77;;;;;;;28.91;38.08;94019.47;5052883;28;20048;-73
2023/07/14 10:55:51;;;;;;;17.10;9.95;;;;;;;29.02;37.86;94014.53;5052443;28;20400;-72
2023/07/14 10:58:20;;;;;;;13.05;10.13;;;;;;;28.80;37.98;93980.59;5053215;28;20039;-74
2023/07/14 11:00:51;;;;;;;15.35;9.18;;;;;;;29.02;37.22;94002.81;5051714;28;20557;-74
2023/07/14 11:03:39;;;;;;;21.58;9.82;;;;;;;29.13;37.95;94019.75;5053677;28;20178;-73
2023/07/14 11:06:14;;;;;;;17.85;9.55;;;;;;;29.06;37.07;94014.44;5046678;28;20530;-73
2023/07/14 11:08:39;;;;;;;21.05;9.05;;;;;;;28.86;36.09;94008.25;5052085;28;20449;-73
2023/07/14 11:11:05;;;;;;;12.80;8.85;;;;;;;28.94;36.87;94013.13;5052798;28;20111;-73
2023/07/14 11:13:39;;;;;;;16.63;8.77;;;;;;;29.08;37.40;94014.78;5052304;28;20516;-74
2023/07/14 11:16:09;;;;;;;;;;;;;;;29.14;35.79;94004.84;5053774;28;20041;-73
2023/07/14 11:18:47;;;;;;;18.63;10.43;;;;;;;29.08;36.45;93996.41;5067951;28;19927;-74
2023/07/14 11:21:39;;;;;;;13.43;9.05;;;;;;;29.04;35.86;93992.16;5050679;28;20034;-71
2023/07/14 11:24:19;;;;;;;11.23;9.23;;;;;;;29.10;35.93;93993.97;5052667;28;20048;-73
2023/07/14 11:27:03;;;;;;;12.98;8.27;;;;;;;29.27;35.32;94002.25;5052882;28;20041;-73
2023/07/14 11:29:55;;;;;;;18.95;9.20;;;;;;;29.32;36.21;93999.00;5053423;28;20052;-73
2023/07/14 11:32:28;;;;;;;16.33;9.50;;;;;;;29.42;36.10;94003.44;5044612;28;20133;-72
2023/07/14 11:35:24;;;;;;;13.93;8.63;;;;;;;29.40;35.57;93998.38;5051181;28;20033;-74
2023/07/14 11:38:20;;;;;;;13.68;9.23;;;;;;;29.44;35.69;94001.03;5053040;28;20055;-73
2023/07/14 11:40:49;;;;;;;17.67;9.25;;;;;;;29.39;35.79;93987.84;5051561;28;20040;-73